sensor_id;sensor_type;location;lat;lon;timestamp;P1;durP1;ratioP1;P2;durP2;ratioP2
22965;SDS011;11649;48.090;9.754;2023-09-08T00:02:25;7.63;;;6.72;;
22965;SDS011;11649;48.090;9.754;2023-09-08T00:04:52;8.18;;;6.68;;
22965;SDS011;11649;48.090;9.754;2023-09-08T00:07:20;8.45;;;7.47;;
22965;SDS011;11649;48.090;9.754;2023-09-08T00:09:47;8.73;;;6.78;;
22965;SDS011;11649;48.090;9.754;2023-09-08T00:12:14;8.48;;;6.97;;
22965;SDS011;11649;48.090;9.754;2023-09-08T00:14:41;9.30;;;6.68;;
22965;SDS011;11649;48.090;9.754;2023-09-08T00:17:08;8.48;;;6.60;;
22965;SDS011;11649;48.090;9.754;2023-09-08T00:19:35;8.73;;;7.68;;
22965;SDS011;11649;48.090;9.754;2023-09-08T00:22:02;7.95;;;7.05;;
22965;SDS011;11649;48.090;9.754;2023-09-08T00:24:32;14.15;;;7.53;;
22965;SDS011;11649;48.090;9.754;2023-09-08T00:27:00;9.10;;;7.25;;
22965;SDS011;11649;48.090;9.754;2023-09-08T00:29:27;7.97;;;7.03;;
22965;SDS011;11649;48.090;9.754;2023-09-08T00:31:54;8.13;;;7.00;;
22965;SDS011;11649;48.090;9.754;2023-09-08T00:34:21;8.23;;;7.30;;
22965;SDS011;11649;48.090;9.754;2023-09-08T00:36:48;7.70;;;6.90;;
22965;SDS011;11649;48.090;9.754;2023-09-08T00:39:14;10.40;;;7.60;;
22965;SDS011;11649;48.090;9.754;2023-09-08T00:41:41;8.52;;;6.85;;
22965;SDS011;11649;48.090;9.754;2023-09-08T00:44:08;7.75;;;6.93;;
22965;SDS011;11649;48.090;9.754;2023-09-08T00:46:35;11.02;;;7.03;;
22965;SDS011;11649;48.090;9.754;2023-09-08T00:49:02;7.53;;;6.65;;
22965;SDS011;11649;48.090;9.754;2023-09-08T00:51:29;10.10;;;6.85;;
22965;SDS011;11649;48.090;9.754;2023-09-08T00:53:57;8.43;;;7.32;;
22965;SDS011;11649;48.090;9.754;2023-09-08T00:56:24;10.23;;;7.47;;
22965;SDS011;11649;48.090;9.754;2023-09-08T00:58:51;8.63;;;6.97;;
22965;SDS011;11649;48.090;9.754;2023-09-08T01:01:17;9.15;;;6.90;;
22965;SDS011;11649;48.090;9.754;2023-09-08T01:03:44;10.25;;;6.85;;
22965;SDS011;11649;48.090;9.754;2023-09-08T01:06:11;9.00;;;7.80;;
22965;SDS011;11649;48.090;9.754;2023-09-08T01:08:39;10.02;;;7.18;;
22965;SDS011;11649;48.090;9.754;2023-09-08T01:11:06;8.07;;;7.25;;
22965;SDS011;11649;48.090;9.754;2023-09-08T01:13:33;9.35;;;7.25;;
22965;SDS011;11649;48.090;9.754;2023-09-08T01:16:01;9.82;;;7.53;;
22965;SDS011;11649;48.090;9.754;2023-09-08T01:18:28;8.52;;;7.55;;
22965;SDS011;11649;48.090;9.754;2023-09-08T01:26:25;8.60;;;7.60;;
22965;SDS011;11649;48.090;9.754;2023-09-08T01:28:55;11.05;;;7.50;;
22965;SDS011;11649;48.090;9.754;2023-09-08T01:31:24;8.23;;;7.30;;
22965;SDS011;11649;48.090;9.754;2023-09-08T01:33:54;8.90;;;7.40;;
22965;SDS011;11649;48.090;9.754;2023-09-08T01:36:21;8.50;;;7.03;;
22965;SDS011;11649;48.090;9.754;2023-09-08T01:38:48;9.52;;;7.70;;
22965;SDS011;11649;48.090;9.754;2023-09-08T01:41:15;9.57;;;7.40;;
22965;SDS011;11649;48.090;9.754;2023-09-08T01:43:41;12.68;;;7.55;;
22965;SDS011;11649;48.090;9.754;2023-09-08T01:46:08;10.57;;;7.68;;
22965;SDS011;11649;48.090;9.754;2023-09-08T01:48:35;8.30;;;7.38;;
22965;SDS011;11649;48.090;9.754;2023-09-08T01:51:02;9.13;;;6.88;;
22965;SDS011;11649;48.090;9.754;2023-09-08T01:53:29;10.25;;;7.63;;
22965;SDS011;11649;48.090;9.754;2023-09-08T01:55:56;9.43;;;7.20;;
22965;SDS011;11649;48.090;9.754;2023-09-08T01:58:22;9.45;;;7.43;;
22965;SDS011;11649;48.090;9.754;2023-09-08T02:00:50;8.75;;;6.70;;
22965;SDS011;11649;48.090;9.754;2023-09-08T02:03:17;9.85;;;6.50;;
22965;SDS011;11649;48.090;9.754;2023-09-08T02:05:44;9.57;;;7.10;;
22965;SDS011;11649;48.090;9.754;2023-09-08T02:08:11;8.77;;;6.70;;
22965;SDS011;11649;48.090;9.754;2023-09-08T02:10:39;7.60;;;6.80;;
22965;SDS011;11649;48.090;9.754;2023-09-08T02:13:06;11.10;;;7.38;;
22965;SDS011;11649;48.090;9.754;2023-09-08T02:15:36;10.95;;;7.43;;
22965;SDS011;11649;48.090;9.754;2023-09-08T02:18:03;9.13;;;7.32;;
22965;SDS011;11649;48.090;9.754;2023-09-08T02:20:30;9.68;;;7.30;;
22965;SDS011;11649;48.090;9.754;2023-09-08T02:22:57;11.93;;;8.00;;
22965;SDS011;11649;48.090;9.754;2023-09-08T02:25:29;9.60;;;7.57;;
22965;SDS011;11649;48.090;9.754;2023-09-08T02:27:57;9.50;;;7.38;;
22965;SDS011;11649;48.090;9.754;2023-09-08T02:30:24;12.23;;;7.38;;
22965;SDS011;11649;48.090;9.754;2023-09-08T02:32:51;8.55;;;7.60;;
22965;SDS011;11649;48.090;9.754;2023-09-08T02:35:18;9.65;;;7.63;;
22965;SDS011;11649;48.090;9.754;2023-09-08T02:37:45;8.90;;;7.25;;
22965;SDS011;11649;48.090;9.754;2023-09-08T02:40:11;9.48;;;7.10;;
22965;SDS011;11649;48.090;9.754;2023-09-08T02:42:39;8.27;;;7.10;;
22965;SDS011;11649;48.090;9.754;2023-09-08T02:45:05;10.23;;;7.40;;
22965;SDS011;11649;48.090;9.754;2023-09-08T02:47:33;9.23;;;7.47;;
22965;SDS011;11649;48.090;9.754;2023-09-08T02:49:59;10.77;;;7.50;;
22965;SDS011;11649;48.090;9.754;2023-09-08T02:52:26;10.63;;;7.70;;
22965;SDS011;11649;48.090;9.754;2023-09-08T02:54:53;11.57;;;7.57;;
22965;SDS011;11649;48.090;9.754;2023-09-08T02:57:20;11.10;;;7.68;;
22965;SDS011;11649;48.090;9.754;2023-09-08T02:59:50;9.23;;;7.63;;
22965;SDS011;11649;48.090;9.754;2023-09-08T03:02:23;10.70;;;8.27;;
22965;SDS011;11649;48.090;9.754;2023-09-08T03:04:51;9.73;;;7.20;;
22965;SDS011;11649;48.090;9.754;2023-09-08T03:07:18;15.15;;;7.93;;
22965;SDS011;11649;48.090;9.754;2023-09-08T03:09:45;12.48;;;7.55;;
22965;SDS011;11649;48.090;9.754;2023-09-08T03:12:11;10.75;;;7.70;;
22965;SDS011;11649;48.090;9.754;2023-09-08T03:14:38;10.93;;;8.23;;
22965;SDS011;11649;48.090;9.754;2023-09-08T03:17:05;8.73;;;7.68;;
22965;SDS011;11649;48.090;9.754;2023-09-08T03:19:32;10.60;;;7.40;;
22965;SDS011;11649;48.090;9.754;2023-09-08T03:21:59;11.10;;;7.20;;
22965;SDS011;11649;48.090;9.754;2023-09-08T03:24:26;8.75;;;7.63;;
22965;SDS011;11649;48.090;9.754;2023-09-08T03:26:53;9.55;;;7.30;;
22965;SDS011;11649;48.090;9.754;2023-09-08T03:29:20;9.65;;;7.22;;
22965;SDS011;11649;48.090;9.754;2023-09-08T03:31:46;9.20;;;8.10;;
22965;SDS011;11649;48.090;9.754;2023-09-08T03:34:13;10.38;;;7.88;;
22965;SDS011;11649;48.090;9.754;2023-09-08T03:36:40;10.55;;;7.80;;
22965;SDS011;11649;48.090;9.754;2023-09-08T03:39:07;8.60;;;7.70;;
22965;SDS011;11649;48.090;9.754;2023-09-08T03:41:35;19.67;;;8.07;;
22965;SDS011;11649;48.090;9.754;2023-09-08T03:44:02;11.05;;;8.27;;
22965;SDS011;11649;48.090;9.754;2023-09-08T03:46:29;9.20;;;7.50;;
22965;SDS011;11649;48.090;9.754;2023-09-08T03:48:56;10.20;;;7.50;;
22965;SDS011;11649;48.090;9.754;2023-09-08T03:51:27;10.10;;;7.82;;
22965;SDS011;11649;48.090;9.754;2023-09-08T03:53:54;9.82;;;7.05;;
22965;SDS011;11649;48.090;9.754;2023-09-08T03:56:21;8.02;;;6.72;;
22965;SDS011;11649;48.090;9.754;2023-09-08T03:58:48;9.27;;;7.32;;
22965;SDS011;11649;48.090;9.754;2023-09-08T04:01:15;8.55;;;7.35;;
22965;SDS011;11649;48.090;9.754;2023-09-08T04:03:42;11.45;;;7.75;;
22965;SDS011;11649;48.090;9.754;2023-09-08T04:06:10;10.52;;;8.13;;
22965;SDS011;11649;48.090;9.754;2023-09-08T04:08:37;9.50;;;7.78;;
22965;SDS011;11649;48.090;9.754;2023-09-08T04:11:04;13.15;;;7.65;;
22965;SDS011;11649;48.090;9.754;2023-09-08T04:13:31;8.27;;;7.05;;
22965;SDS011;11649;48.090;9.754;2023-09-08T04:15:58;10.65;;;7.68;;
22965;SDS011;11649;48.090;9.754;2023-09-08T04:18:25;10.32;;;7.78;;
22965;SDS011;11649;48.090;9.754;2023-09-08T04:20:52;11.80;;;7.72;;
22965;SDS011;11649;48.090;9.754;2023-09-08T04:23:19;8.57;;;7.38;;
22965;SDS011;11649;48.090;9.754;2023-09-08T04:25:46;8.75;;;7.35;;
22965;SDS011;11649;48.090;9.754;2023-09-08T04:28:12;11.98;;;8.27;;
22965;SDS011;11649;48.090;9.754;2023-09-08T04:30:39;9.40;;;7.68;;
22965;SDS011;11649;48.090;9.754;2023-09-08T04:33:06;10.35;;;8.23;;
22965;SDS011;11649;48.090;9.754;2023-09-08T04:35:33;11.73;;;7.68;;
22965;SDS011;11649;48.090;9.754;2023-09-08T04:38:00;10.57;;;7.78;;
22965;SDS011;11649;48.090;9.754;2023-09-08T04:40:30;12.27;;;7.55;;
22965;SDS011;11649;48.090;9.754;2023-09-08T04:42:56;9.55;;;7.30;;
22965;SDS011;11649;48.090;9.754;2023-09-08T04:45:23;9.38;;;7.38;;
22965;SDS011;11649;48.090;9.754;2023-09-08T04:47:50;10.43;;;7.57;;
22965;SDS011;11649;48.090;9.754;2023-09-08T04:50:17;9.40;;;7.38;;
22965;SDS011;11649;48.090;9.754;2023-09-08T04:52:44;8.48;;;7.28;;
22965;SDS011;11649;48.090;9.754;2023-09-08T04:55:12;9.82;;;7.65;;
22965;SDS011;11649;48.090;9.754;2023-09-08T04:57:39;9.10;;;7.03;;
22965;SDS011;11649;48.090;9.754;2023-09-08T05:00:06;10.02;;;7.20;;
22965;SDS011;11649;48.090;9.754;2023-09-08T05:02:33;10.07;;;7.80;;
22965;SDS011;11649;48.090;9.754;2023-09-08T05:05:00;8.13;;;6.97;;
22965;SDS011;11649;48.090;9.754;2023-09-08T05:07:27;9.65;;;7.40;;
22965;SDS011;11649;48.090;9.754;2023-09-08T05:09:54;8.60;;;7.43;;
22965;SDS011;11649;48.090;9.754;2023-09-08T05:12:23;8.90;;;7.30;;
22965;SDS011;11649;48.090;9.754;2023-09-08T05:14:50;11.85;;;7.93;;
22965;SDS011;11649;48.090;9.754;2023-09-08T05:17:23;9.68;;;7.93;;
22965;SDS011;11649;48.090;9.754;2023-09-08T05:19:50;10.05;;;8.10;;
22965;SDS011;11649;48.090;9.754;2023-09-08T05:22:17;8.70;;;7.80;;
22965;SDS011;11649;48.090;9.754;2023-09-08T05:24:43;9.55;;;7.97;;
22965;SDS011;11649;48.090;9.754;2023-09-08T05:27:10;8.85;;;7.40;;
22965;SDS011;11649;48.090;9.754;2023-09-08T05:29:38;10.20;;;7.47;;
22965;SDS011;11649;48.090;9.754;2023-09-08T05:32:05;8.20;;;7.07;;
22965;SDS011;11649;48.090;9.754;2023-09-08T05:34:32;9.88;;;7.68;;
22965;SDS011;11649;48.090;9.754;2023-09-08T05:36:59;9.45;;;7.95;;
22965;SDS011;11649;48.090;9.754;2023-09-08T05:39:25;13.75;;;8.52;;
22965;SDS011;11649;48.090;9.754;2023-09-08T05:41:52;10.93;;;7.93;;
22965;SDS011;11649;48.090;9.754;2023-09-08T05:44:19;10.27;;;8.48;;
22965;SDS011;11649;48.090;9.754;2023-09-08T05:46:46;9.55;;;7.88;;
22965;SDS011;11649;48.090;9.754;2023-09-08T05:49:13;10.13;;;8.88;;
22965;SDS011;11649;48.090;9.754;2023-09-08T05:51:40;10.90;;;8.48;;
22965;SDS011;11649;48.090;9.754;2023-09-08T05:54:07;12.55;;;8.88;;
22965;SDS011;11649;48.090;9.754;2023-09-08T05:56:34;12.98;;;8.45;;
22965;SDS011;11649;48.090;9.754;2023-09-08T05:59:01;11.75;;;9.98;;
22965;SDS011;11649;48.090;9.754;2023-09-08T06:01:28;13.13;;;10.30;;
22965;SDS011;11649;48.090;9.754;2023-09-08T06:03:55;15.52;;;11.30;;
22965;SDS011;11649;48.090;9.754;2023-09-08T06:06:22;13.05;;;9.98;;
22965;SDS011;11649;48.090;9.754;2023-09-08T06:08:49;12.52;;;10.48;;
22965;SDS011;11649;48.090;9.754;2023-09-08T06:11:16;14.38;;;11.43;;
22965;SDS011;11649;48.090;9.754;2023-09-08T06:13:43;14.38;;;11.85;;
22965;SDS011;11649;48.090;9.754;2023-09-08T06:16:10;15.85;;;12.02;;
22965;SDS011;11649;48.090;9.754;2023-09-08T06:18:37;17.35;;;12.23;;
22965;SDS011;11649;48.090;9.754;2023-09-08T06:21:06;13.02;;;11.63;;
22965;SDS011;11649;48.090;9.754;2023-09-08T06:23:34;14.85;;;11.85;;
22965;SDS011;11649;48.090;9.754;2023-09-08T06:26:03;17.48;;;13.18;;
22965;SDS011;11649;48.090;9.754;2023-09-08T06:28:30;14.63;;;11.90;;
22965;SDS011;11649;48.090;9.754;2023-09-08T06:31:04;19.50;;;16.05;;
22965;SDS011;11649;48.090;9.754;2023-09-08T06:33:31;14.35;;;12.82;;
22965;SDS011;11649;48.090;9.754;2023-09-08T06:35:58;16.10;;;13.75;;
22965;SDS011;11649;48.090;9.754;2023-09-08T06:38:25;16.17;;;12.40;;
22965;SDS011;11649;48.090;9.754;2023-09-08T06:40:52;15.55;;;13.13;;
22965;SDS011;11649;48.090;9.754;2023-09-08T06:43:20;16.00;;;12.80;;
22965;SDS011;11649;48.090;9.754;2023-09-08T06:45:47;15.95;;;11.98;;
22965;SDS011;11649;48.090;9.754;2023-09-08T06:48:17;14.75;;;12.40;;
22965;SDS011;11649;48.090;9.754;2023-09-08T06:50:44;15.73;;;12.40;;
22965;SDS011;11649;48.090;9.754;2023-09-08T06:53:11;22.58;;;14.85;;
22965;SDS011;11649;48.090;9.754;2023-09-08T06:55:38;15.15;;;12.98;;
22965;SDS011;11649;48.090;9.754;2023-09-08T06:58:09;17.92;;;14.85;;
22965;SDS011;11649;48.090;9.754;2023-09-08T07:00:36;17.42;;;13.98;;
22965;SDS011;11649;48.090;9.754;2023-09-08T07:03:03;18.02;;;12.88;;
22965;SDS011;11649;48.090;9.754;2023-09-08T07:05:32;12.98;;;11.35;;
22965;SDS011;11649;48.090;9.754;2023-09-08T07:07:59;13.07;;;11.68;;
22965;SDS011;11649;48.090;9.754;2023-09-08T07:10:25;13.90;;;11.93;;
22965;SDS011;11649;48.090;9.754;2023-09-08T07:12:52;14.13;;;11.55;;
22965;SDS011;11649;48.090;9.754;2023-09-08T07:17:50;14.88;;;12.27;;
22965;SDS011;11649;48.090;9.754;2023-09-08T07:20:17;15.65;;;12.98;;
22965;SDS011;11649;48.090;9.754;2023-09-08T07:22:44;17.27;;;13.10;;
22965;SDS011;11649;48.090;9.754;2023-09-08T07:25:11;18.33;;;14.85;;
22965;SDS011;11649;48.090;9.754;2023-09-08T07:27:37;16.38;;;14.38;;
22965;SDS011;11649;48.090;9.754;2023-09-08T07:30:04;17.90;;;13.93;;
22965;SDS011;11649;48.090;9.754;2023-09-08T07:32:32;19.02;;;15.18;;
22965;SDS011;11649;48.090;9.754;2023-09-08T07:34:59;20.58;;;15.98;;
22965;SDS011;11649;48.090;9.754;2023-09-08T07:37:26;18.05;;;14.88;;
22965;SDS011;11649;48.090;9.754;2023-09-08T07:39:52;16.70;;;13.95;;
22965;SDS011;11649;48.090;9.754;2023-09-08T07:42:19;20.00;;;15.05;;
22965;SDS011;11649;48.090;9.754;2023-09-08T07:44:47;16.15;;;13.15;;
22965;SDS011;11649;48.090;9.754;2023-09-08T07:47:13;17.05;;;14.43;;
22965;SDS011;11649;48.090;9.754;2023-09-08T07:49:44;15.68;;;13.30;;
22965;SDS011;11649;48.090;9.754;2023-09-08T07:52:13;16.88;;;13.05;;
22965;SDS011;11649;48.090;9.754;2023-09-08T07:54:40;18.92;;;15.65;;
22965;SDS011;11649;48.090;9.754;2023-09-08T07:57:07;17.05;;;14.70;;
22965;SDS011;11649;48.090;9.754;2023-09-08T07:59:34;21.67;;;17.35;;
22965;SDS011;11649;48.090;9.754;2023-09-08T08:02:03;16.50;;;13.52;;
22965;SDS011;11649;48.090;9.754;2023-09-08T08:04:30;15.65;;;12.95;;
22965;SDS011;11649;48.090;9.754;2023-09-08T08:06:57;19.88;;;16.15;;
22965;SDS011;11649;48.090;9.754;2023-09-08T08:09:24;17.88;;;15.75;;
22965;SDS011;11649;48.090;9.754;2023-09-08T08:11:50;15.45;;;13.43;;
22965;SDS011;11649;48.090;9.754;2023-09-08T08:14:17;19.88;;;16.95;;
22965;SDS011;11649;48.090;9.754;2023-09-08T08:16:44;19.55;;;16.63;;
22965;SDS011;11649;48.090;9.754;2023-09-08T08:19:11;15.63;;;12.85;;
22965;SDS011;11649;48.090;9.754;2023-09-08T08:21:37;14.20;;;12.70;;
22965;SDS011;11649;48.090;9.754;2023-09-08T08:24:05;21.33;;;15.23;;
22965;SDS011;11649;48.090;9.754;2023-09-08T08:26:31;19.73;;;15.68;;
22965;SDS011;11649;48.090;9.754;2023-09-08T08:28:59;15.77;;;12.65;;
22965;SDS011;11649;48.090;9.754;2023-09-08T08:31:26;19.67;;;15.02;;
22965;SDS011;11649;48.090;9.754;2023-09-08T08:33:53;12.95;;;11.60;;
22965;SDS011;11649;48.090;9.754;2023-09-08T08:36:20;14.57;;;11.90;;
22965;SDS011;11649;48.090;9.754;2023-09-08T08:38:46;12.02;;;10.30;;
22965;SDS011;11649;48.090;9.754;2023-09-08T08:41:13;15.35;;;12.52;;
22965;SDS011;11649;48.090;9.754;2023-09-08T08:43:41;16.08;;;13.30;;
22965;SDS011;11649;48.090;9.754;2023-09-08T08:46:09;14.32;;;11.50;;
22965;SDS011;11649;48.090;9.754;2023-09-08T08:48:37;17.13;;;13.45;;
22965;SDS011;11649;48.090;9.754;2023-09-08T08:51:05;15.00;;;11.77;;
22965;SDS011;11649;48.090;9.754;2023-09-08T08:53:34;15.68;;;14.02;;
22965;SDS011;11649;48.090;9.754;2023-09-08T08:56:02;15.18;;;12.23;;
22965;SDS011;11649;48.090;9.754;2023-09-08T08:58:32;14.68;;;10.98;;
22965;SDS011;11649;48.090;9.754;2023-09-08T09:00:59;12.80;;;10.95;;
22965;SDS011;11649;48.090;9.754;2023-09-08T09:03:27;13.18;;;9.98;;
22965;SDS011;11649;48.090;9.754;2023-09-08T09:05:55;15.43;;;12.85;;
22965;SDS011;11649;48.090;9.754;2023-09-08T09:08:23;14.50;;;12.00;;
22965;SDS011;11649;48.090;9.754;2023-09-08T09:10:51;14.95;;;12.25;;
22965;SDS011;11649;48.090;9.754;2023-09-08T09:13:18;12.30;;;11.10;;
22965;SDS011;11649;48.090;9.754;2023-09-08T09:15:45;12.40;;;10.00;;
22965;SDS011;11649;48.090;9.754;2023-09-08T09:18:13;13.30;;;10.73;;
22965;SDS011;11649;48.090;9.754;2023-09-08T09:20:40;10.85;;;9.75;;
22965;SDS011;11649;48.090;9.754;2023-09-08T09:23:32;11.80;;;9.65;;
22965;SDS011;11649;48.090;9.754;2023-09-08T09:26:01;11.63;;;10.43;;
22965;SDS011;11649;48.090;9.754;2023-09-08T09:28:30;11.20;;;9.48;;
22965;SDS011;11649;48.090;9.754;2023-09-08T09:30:57;13.77;;;10.38;;
22965;SDS011;11649;48.090;9.754;2023-09-08T09:33:25;13.02;;;9.63;;
22965;SDS011;11649;48.090;9.754;2023-09-08T09:35:55;13.90;;;9.40;;
22965;SDS011;11649;48.090;9.754;2023-09-08T09:38:21;9.02;;;7.72;;
22965;SDS011;11649;48.090;9.754;2023-09-08T09:40:51;14.60;;;10.75;;
22965;SDS011;11649;48.090;9.754;2023-09-08T09:43:20;11.38;;;9.95;;
22965;SDS011;11649;48.090;9.754;2023-09-08T09:45:49;12.93;;;8.93;;
22965;SDS011;11649;48.090;9.754;2023-09-08T09:48:16;13.82;;;10.02;;
22965;SDS011;11649;48.090;9.754;2023-09-08T09:50:46;13.45;;;10.10;;
22965;SDS011;11649;48.090;9.754;2023-09-08T09:53:13;10.73;;;8.90;;
22965;SDS011;11649;48.090;9.754;2023-09-08T09:55:42;20.80;;;10.77;;
22965;SDS011;11649;48.090;9.754;2023-09-08T09:58:10;13.95;;;9.77;;
22965;SDS011;11649;48.090;9.754;2023-09-08T10:00:38;11.80;;;9.73;;
22965;SDS011;11649;48.090;9.754;2023-09-08T10:03:07;11.80;;;8.65;;
22965;SDS011;11649;48.090;9.754;2023-09-08T10:05:35;10.82;;;8.57;;
22965;SDS011;11649;48.090;9.754;2023-09-08T10:08:03;9.70;;;7.85;;
22965;SDS011;11649;48.090;9.754;2023-09-08T10:10:30;8.40;;;7.57;;
22965;SDS011;11649;48.090;9.754;2023-09-08T10:13:02;15.57;;;10.15;;
22965;SDS011;11649;48.090;9.754;2023-09-08T10:15:31;12.85;;;8.77;;
22965;SDS011;11649;48.090;9.754;2023-09-08T10:18:01;12.55;;;8.23;;
22965;SDS011;11649;48.090;9.754;2023-09-08T10:20:31;10.13;;;8.13;;
22965;SDS011;11649;48.090;9.754;2023-09-08T10:25:37;10.27;;;8.02;;
22965;SDS011;11649;48.090;9.754;2023-09-08T10:30:36;11.23;;;7.60;;
22965;SDS011;11649;48.090;9.754;2023-09-08T10:33:03;11.57;;;8.70;;
22965;SDS011;11649;48.090;9.754;2023-09-08T10:35:32;10.57;;;8.18;;
22965;SDS011;11649;48.090;9.754;2023-09-08T10:40:52;11.13;;;8.13;;
22965;SDS011;11649;48.090;9.754;2023-09-08T10:43:19;10.00;;;7.75;;
22965;SDS011;11649;48.090;9.754;2023-09-08T10:45:46;7.88;;;7.05;;
22965;SDS011;11649;48.090;9.754;2023-09-08T10:48:14;9.70;;;6.93;;
22965;SDS011;11649;48.090;9.754;2023-09-08T10:53:26;9.40;;;7.47;;
22965;SDS011;11649;48.090;9.754;2023-09-08T10:55:53;8.43;;;7.63;;
22965;SDS011;11649;48.090;9.754;2023-09-08T10:58:32;9.65;;;7.60;;
22965;SDS011;11649;48.090;9.754;2023-09-08T11:01:03;8.57;;;7.47;;
22965;SDS011;11649;48.090;9.754;2023-09-08T11:06:04;10.43;;;7.30;;
22965;SDS011;11649;48.090;9.754;2023-09-08T11:08:37;9.98;;;7.38;;
22965;SDS011;11649;48.090;9.754;2023-09-08T11:11:05;8.18;;;7.25;;
22965;SDS011;11649;48.090;9.754;2023-09-08T11:13:33;7.57;;;6.80;;
22965;SDS011;11649;48.090;9.754;2023-09-08T11:16:00;7.72;;;6.93;;
22965;SDS011;11649;48.090;9.754;2023-09-08T11:18:32;7.47;;;6.78;;
22965;SDS011;11649;48.090;9.754;2023-09-08T11:21:00;8.45;;;6.97;;
22965;SDS011;11649;48.090;9.754;2023-09-08T11:23:28;9.00;;;7.00;;
22965;SDS011;11649;48.090;9.754;2023-09-08T11:25:57;8.70;;;7.05;;
22965;SDS011;11649;48.090;9.754;2023-09-08T11:28:26;8.75;;;6.88;;
22965;SDS011;11649;48.090;9.754;2023-09-08T11:30:54;9.57;;;6.93;;
22965;SDS011;11649;48.090;9.754;2023-09-08T11:33:22;8.13;;;6.63;;
22965;SDS011;11649;48.090;9.754;2023-09-08T11:38:42;10.25;;;7.13;;
22965;SDS011;11649;48.090;9.754;2023-09-08T11:41:10;9.60;;;6.28;;
22965;SDS011;11649;48.090;9.754;2023-09-08T11:43:36;7.15;;;6.43;;
22965;SDS011;11649;48.090;9.754;2023-09-08T11:46:03;8.52;;;7.13;;
22965;SDS011;11649;48.090;9.754;2023-09-08T11:48:31;8.73;;;7.30;;
22965;SDS011;11649;48.090;9.754;2023-09-08T11:50:59;7.65;;;6.93;;
22965;SDS011;11649;48.090;9.754;2023-09-08T11:53:26;6.82;;;6.03;;
22965;SDS011;11649;48.090;9.754;2023-09-08T11:55:54;8.90;;;6.88;;
22965;SDS011;11649;48.090;9.754;2023-09-08T11:58:21;8.60;;;5.95;;
22965;SDS011;11649;48.090;9.754;2023-09-08T12:00:48;7.72;;;6.82;;
22965;SDS011;11649;48.090;9.754;2023-09-08T12:03:16;7.32;;;6.20;;
22965;SDS011;11649;48.090;9.754;2023-09-08T12:05:44;7.22;;;6.50;;
22965;SDS011;11649;48.090;9.754;2023-09-08T12:08:30;7.88;;;6.70;;
22965;SDS011;11649;48.090;9.754;2023-09-08T12:13:43;9.73;;;6.05;;
22965;SDS011;11649;48.090;9.754;2023-09-08T12:16:19;7.03;;;6.18;;
22965;SDS011;11649;48.090;9.754;2023-09-08T12:18:49;9.02;;;5.60;;
22965;SDS011;11649;48.090;9.754;2023-09-08T12:21:17;9.43;;;6.28;;
22965;SDS011;11649;48.090;9.754;2023-09-08T12:23:47;7.47;;;6.03;;
22965;SDS011;11649;48.090;9.754;2023-09-08T12:26:18;6.05;;;5.45;;
22965;SDS011;11649;48.090;9.754;2023-09-08T12:28:45;6.85;;;5.65;;
22965;SDS011;11649;48.090;9.754;2023-09-08T12:31:13;6.90;;;6.20;;
22965;SDS011;11649;48.090;9.754;2023-09-08T12:33:44;7.70;;;6.40;;
22965;SDS011;11649;48.090;9.754;2023-09-08T12:38:48;7.97;;;5.93;;
22965;SDS011;11649;48.090;9.754;2023-09-08T12:41:19;7.60;;;5.78;;
22965;SDS011;11649;48.090;9.754;2023-09-08T12:43:46;7.97;;;6.35;;
22965;SDS011;11649;48.090;9.754;2023-09-08T12:46:13;8.20;;;5.70;;
22965;SDS011;11649;48.090;9.754;2023-09-08T12:48:43;6.53;;;5.53;;
22965;SDS011;11649;48.090;9.754;2023-09-08T12:51:10;6.35;;;5.75;;
22965;SDS011;11649;48.090;9.754;2023-09-08T12:53:37;8.88;;;6.00;;
22965;SDS011;11649;48.090;9.754;2023-09-08T12:56:03;8.60;;;6.55;;
22965;SDS011;11649;48.090;9.754;2023-09-08T12:58:30;7.22;;;5.82;;
22965;SDS011;11649;48.090;9.754;2023-09-08T13:00:57;6.40;;;5.80;;
22965;SDS011;11649;48.090;9.754;2023-09-08T13:03:24;7.00;;;5.70;;
22965;SDS011;11649;48.090;9.754;2023-09-08T13:05:51;6.15;;;5.55;;
22965;SDS011;11649;48.090;9.754;2023-09-08T13:08:17;7.75;;;5.95;;
22965;SDS011;11649;48.090;9.754;2023-09-08T13:10:44;6.47;;;5.68;;
22965;SDS011;11649;48.090;9.754;2023-09-08T13:13:11;6.05;;;5.20;;
22965;SDS011;11649;48.090;9.754;2023-09-08T13:15:38;5.80;;;5.30;;
22965;SDS011;11649;48.090;9.754;2023-09-08T13:18:05;6.03;;;5.43;;
22965;SDS011;11649;48.090;9.754;2023-09-08T13:20:32;8.32;;;5.55;;
22965;SDS011;11649;48.090;9.754;2023-09-08T13:22:58;5.82;;;5.22;;
22965;SDS011;11649;48.090;9.754;2023-09-08T13:25:25;6.82;;;5.40;;
22965;SDS011;11649;48.090;9.754;2023-09-08T13:27:52;5.78;;;5.05;;
22965;SDS011;11649;48.090;9.754;2023-09-08T13:30:19;7.28;;;5.00;;
22965;SDS011;11649;48.090;9.754;2023-09-08T13:32:48;6.95;;;4.90;;
22965;SDS011;11649;48.090;9.754;2023-09-08T13:35:15;6.30;;;5.07;;
22965;SDS011;11649;48.090;9.754;2023-09-08T13:37:43;5.25;;;4.85;;
22965;SDS011;11649;48.090;9.754;2023-09-08T13:40:10;5.35;;;4.85;;
22965;SDS011;11649;48.090;9.754;2023-09-08T13:42:39;4.97;;;4.45;;
22965;SDS011;11649;48.090;9.754;2023-09-08T13:45:06;5.80;;;4.70;;
22965;SDS011;11649;48.090;9.754;2023-09-08T13:47:34;6.38;;;4.60;;
22965;SDS011;11649;48.090;9.754;2023-09-08T13:50:03;4.75;;;4.30;;
22965;SDS011;11649;48.090;9.754;2023-09-08T13:52:32;5.63;;;4.40;;
22965;SDS011;11649;48.090;9.754;2023-09-08T13:55:04;4.60;;;4.20;;
22965;SDS011;11649;48.090;9.754;2023-09-08T13:57:37;6.30;;;4.10;;
22965;SDS011;11649;48.090;9.754;2023-09-08T14:00:07;4.55;;;4.10;;
22965;SDS011;11649;48.090;9.754;2023-09-08T14:02:42;5.75;;;4.07;;
22965;SDS011;11649;48.090;9.754;2023-09-08T14:05:16;5.78;;;4.22;;
22965;SDS011;11649;48.090;9.754;2023-09-08T14:07:50;5.40;;;4.50;;
22965;SDS011;11649;48.090;9.754;2023-09-08T14:10:30;4.68;;;4.28;;
22965;SDS011;11649;48.090;9.754;2023-09-08T14:13:03;6.00;;;4.10;;
22965;SDS011;11649;48.090;9.754;2023-09-08T14:15:30;5.18;;;4.35;;
22965;SDS011;11649;48.090;9.754;2023-09-08T14:17:57;4.70;;;4.00;;
22965;SDS011;11649;48.090;9.754;2023-09-08T14:20:24;4.50;;;3.95;;
22965;SDS011;11649;48.090;9.754;2023-09-08T14:22:51;6.30;;;4.10;;
22965;SDS011;11649;48.090;9.754;2023-09-08T14:25:18;4.93;;;3.70;;
22965;SDS011;11649;48.090;9.754;2023-09-08T14:27:45;4.25;;;3.85;;
22965;SDS011;11649;48.090;9.754;2023-09-08T14:30:12;4.32;;;3.92;;
22965;SDS011;11649;48.090;9.754;2023-09-08T14:32:39;7.60;;;3.80;;
22965;SDS011;11649;48.090;9.754;2023-09-08T14:35:06;6.78;;;4.40;;
22965;SDS011;11649;48.090;9.754;2023-09-08T14:37:33;4.40;;;3.97;;
22965;SDS011;11649;48.090;9.754;2023-09-08T14:40:00;4.28;;;3.88;;
22965;SDS011;11649;48.090;9.754;2023-09-08T14:42:28;6.38;;;4.70;;
22965;SDS011;11649;48.090;9.754;2023-09-08T14:44:55;6.25;;;4.20;;
22965;SDS011;11649;48.090;9.754;2023-09-08T14:47:22;4.60;;;3.88;;
22965;SDS011;11649;48.090;9.754;2023-09-08T14:49:49;4.60;;;4.20;;
22965;SDS011;11649;48.090;9.754;2023-09-08T14:52:16;6.60;;;4.65;;
22965;SDS011;11649;48.090;9.754;2023-09-08T14:54:46;4.28;;;3.88;;
22965;SDS011;11649;48.090;9.754;2023-09-08T14:57:13;5.43;;;4.30;;
22965;SDS011;11649;48.090;9.754;2023-09-08T14:59:40;5.72;;;4.30;;
22965;SDS011;11649;48.090;9.754;2023-09-08T15:02:07;5.45;;;4.50;;
22965;SDS011;11649;48.090;9.754;2023-09-08T15:04:35;6.63;;;4.55;;
22965;SDS011;11649;48.090;9.754;2023-09-08T15:07:02;6.65;;;4.50;;
22965;SDS011;11649;48.090;9.754;2023-09-08T15:09:29;5.20;;;4.53;;
22965;SDS011;11649;48.090;9.754;2023-09-08T15:11:56;5.13;;;4.63;;